Main page
METAR-TAF:

METAR-TAF

Airports :

RAF Marham

Marham, England

latitude: 52-39N, longitude: 000-34E, elevation: 23 m

Current weather observation

The report was made 43 minutes ago, at 17:50 UTC
Wind 8 kt from the South/Southeast
Temperature 6°C
Humidity 93%
Pressure 1016 hPa
Visibility: 6000 m
haze

METAR: EGYM 251750Z AUTO 16008KT 6000 HZ OVC009/// 06/05 Q1016

Time: 18:33 (18:33 UTC)


TAF: missing

Weather observations and forecasts of more than 4000 airports (METAR and TAF reports).

The available stations are represented by yellow and red dots on the map.

Hover mouse over dot to see the name of the station.

Then click to see weather observations and forecasts.

To change the map : click on the green buttons with a black cross to zoom in, on the green button with a dash to zoom out, or on the green arrows for adjacent maps.


METAR-TAF: